Time;durP1;ratioP1;P1;durP2;ratioP2;P2;SDS_P1;SDS_P2;PMS_P1;PMS_P2;Temp;Humidity;BMP_temperature;BMP_pressure;BME280_temperature;BME280_humidity;BME280_pressure;Samples;Min_cycle;Max_cycle;Signal;HPM_P1;HPM_P2
2023/03/14 00:01:34;;;;;;;0.30;0.30;;;;;;;;;;5087727;28;20024;-74
2023/03/14 00:03:59;;;;;;;0.10;0.10;;;;;;;;;;5089174;28;20361;-73
2023/03/14 00:06:25;;;;;;;1.05;1.00;;;;;;;;;;5089162;28;20024;-73
2023/03/14 00:08:51;;;;;;;1.00;1.00;;;;;;;;;;5089182;28;20036;-71
2023/03/14 00:11:21;;;;;;;0.40;0.40;;;;;;;;;;5089009;28;20111;-72
2023/03/14 00:13:47;;;;;;;0.90;0.90;;;;;;;;;;5088941;28;20101;-73
2023/03/14 00:16:13;;;;;;;0.10;0.10;;;;;;;;;;5086330;28;20432;-73
2023/03/14 00:18:39;;;;;;;0.10;0.10;;;;;;;;;;5092768;28;20056;-72
2023/03/14 00:21:05;;;;;;;0.40;0.35;;;;;;;;;;5091663;28;20025;-73
2023/03/14 00:23:32;;;;;;;0.35;0.35;;;;;;;;;;5091785;28;20024;-73
2023/03/14 00:26:01;;;;;;;0.10;0.10;;;;;;;;;;5090779;28;20052;-73
2023/03/14 00:28:26;;;;;;;0.10;0.10;;;;;;;;;;5089539;28;20137;-74
2023/03/14 00:30:52;;;;;;;0.10;0.10;;;;;;;;;;5083974;28;20040;-73
2023/03/14 00:33:17;;;;;;;0.10;0.10;;;;;;;;;;5069605;28;20028;-74
2023/03/14 00:35:43;;;;;;;2.60;2.40;;;;;;;;;;5090785;28;20043;-74
2023/03/14 00:38:08;;;;;;;0.10;0.10;;;;;;;;;;5089989;28;20028;-72
2023/03/14 00:40:33;;;;;;;0.10;0.10;;;;;;;;;;5092938;28;20028;-73
2023/03/14 00:42:59;;;;;;;0.10;0.10;;;;;;;;;;5094795;28;20031;-71
2023/03/14 00:45:25;;;;;;;0.10;0.10;;;;;;;;;;5095056;28;20174;-71
2023/03/14 00:47:51;;;;;;;0.10;0.10;;;;;;;;;;5094017;28;20131;-71
2023/03/14 00:50:17;;;;;;;0.10;0.10;;;;;;;;;;5068913;28;20567;-72
2023/03/14 00:52:46;;;;;;;0.20;0.20;;;;;;;;;;5087996;28;20109;-72
2023/03/14 00:55:11;;;;;;;0.13;0.13;;;;;;;;;;5096695;28;20028;-73
2023/03/14 00:57:37;;;;;;;3.50;2.30;;;;;;;;;;5095197;28;20038;-72
2023/03/14 01:00:05;;;;;;;0.10;0.10;;;;;;;;;;5092451;28;20429;-72
2023/03/14 01:02:31;;;;;;;0.10;0.10;;;;;;;;;;5089354;28;20020;-72
2023/03/14 01:04:56;;;;;;;0.10;0.10;;;;;;;;;;5096448;28;20100;-71
2023/03/14 01:07:21;;;;;;;0.20;0.20;;;;;;;;;;5096099;28;20040;-71
2023/03/14 01:09:50;;;;;;;0.13;0.13;;;;;;;;;;5095073;28;20024;-70
2023/03/14 01:12:16;;;;;;;0.10;0.10;;;;;;;;;;5094868;28;20058;-71
2023/03/14 01:14:41;;;;;;;0.30;0.30;;;;;;;;;;5095901;28;20056;-70
2023/03/14 01:17:07;;;;;;;0.28;0.28;;;;;;;;;;5095784;28;20036;-72
2023/03/14 01:19:32;;;;;;;0.10;0.10;;;;;;;;;;5095992;28;20080;-72
2023/03/14 01:21:58;;;;;;;0.20;0.20;;;;;;;;;;5094666;28;20020;-71
2023/03/14 01:24:23;;;;;;;0.10;0.10;;;;;;;;;;5095830;28;20044;-72
2023/03/14 01:26:49;;;;;;;0.10;0.10;;;;;;;;;;5095671;28;20083;-72
2023/03/14 01:29:14;;;;;;;0.10;0.10;;;;;;;;;;5094477;28;20028;-71
2023/03/14 01:31:40;;;;;;;0.63;0.63;;;;;;;;;;5076363;28;20503;-72
2023/03/14 01:34:06;;;;;;;0.10;0.10;;;;;;;;;;5094265;28;20034;-73
2023/03/14 01:36:31;;;;;;;0.52;0.52;;;;;;;;;;5094541;28;20502;-71
2023/03/14 01:38:59;;;;;;;0.35;0.35;;;;;;;;;;5094372;28;20032;-71
2023/03/14 01:41:25;;;;;;;4.60;4.32;;;;;;;;;;5094242;28;20201;-71
2023/03/14 01:43:53;;;;;;;0.10;0.10;;;;;;;;;;5093273;28;20027;-71
2023/03/14 01:46:18;;;;;;;1.42;1.33;;;;;;;;;;5094084;28;20028;-71
2023/03/14 01:48:50;;;;;;;0.68;0.68;;;;;;;;;;5094481;28;20072;-71
2023/03/14 01:51:24;;;;;;;0.75;0.75;;;;;;;;;;5095367;28;20479;-70
2023/03/14 01:53:50;;;;;;;0.10;0.10;;;;;;;;;;5094013;28;20136;-71
2023/03/14 01:56:17;;;;;;;0.52;0.52;;;;;;;;;;5093920;28;20074;-70
2023/03/14 01:58:45;;;;;;;0.17;0.17;;;;;;;;;;5093872;28;20077;-72
2023/03/14 02:01:11;;;;;;;0.20;0.20;;;;;;;;;;5093341;28;20032;-72
2023/03/14 02:03:44;;;;;;;0.10;0.10;;;;;;;;;;5093895;28;20054;-71
2023/03/14 02:06:11;;;;;;;0.10;0.10;;;;;;;;;;5076670;28;20036;-72
2023/03/14 02:08:39;;;;;;;0.40;0.40;;;;;;;;;;5093783;28;20044;-71
2023/03/14 02:11:08;;;;;;;0.10;0.10;;;;;;;;;;5077128;28;20016;-72
2023/03/14 02:14:18;;;;;;;5.55;3.03;;;;;;;;;;5092854;28;20032;-73
2023/03/14 02:16:58;;;;;;;0.10;0.10;;;;;;;;;;5075264;28;20060;-72
2023/03/14 02:20:00;;;;;;;1.30;1.20;;;;;;;;;;5079764;28;20059;-72
2023/03/14 02:22:33;;;;;;;0.10;0.10;;;;;;;;;;5057933;28;20052;-72
2023/03/14 02:25:09;;;;;;;0.10;0.10;;;;;;;;;;5073027;28;20044;-72
2023/03/14 02:27:35;;;;;;;0.10;0.10;;;;;;;;;;5073020;28;20046;-71
2023/03/14 02:30:12;;;;;;;0.10;0.10;;;;;;;;;;5073351;28;20086;-71
2023/03/14 02:32:40;;;;;;;0.20;0.20;;;;;;;;;;5073138;28;20032;-71
2023/03/14 02:35:08;;;;;;;0.10;0.10;;;;;;;;;;5074504;28;20032;-71
2023/03/14 02:37:40;;;;;;;0.25;0.25;;;;;;;;;;5094113;28;20028;-71
2023/03/14 02:40:07;;;;;;;0.17;0.17;;;;;;;;;;5093090;28;20479;-70
2023/03/14 02:42:33;;;;;;;0.10;0.10;;;;;;;;;;5093062;28;20032;-70
2023/03/14 02:45:20;;;;;;;0.38;0.38;;;;;;;;;;5092829;28;20042;-70
2023/03/14 02:47:49;;;;;;;0.20;0.20;;;;;;;;;;5089081;28;20043;-70
2023/03/14 02:50:20;;;;;;;0.10;0.10;;;;;;;;;;5093056;28;20111;-70
2023/03/14 02:52:45;;;;;;;0.10;0.10;;;;;;;;;;5093115;28;20023;-72
2023/03/14 02:55:11;;;;;;;0.55;0.55;;;;;;;;;;5092716;28;20407;-72
2023/03/14 02:57:40;;;;;;;0.30;0.30;;;;;;;;;;5092735;28;20028;-71
2023/03/14 03:00:06;;;;;;;0.10;0.10;;;;;;;;;;5082465;28;20021;-72
2023/03/14 03:02:35;;;;;;;1.35;1.25;;;;;;;;;;5072542;28;20035;-71
2023/03/14 03:05:00;;;;;;;0.10;0.10;;;;;;;;;;5088799;28;20012;-71
2023/03/14 03:07:26;;;;;;;0.88;0.73;;;;;;;;;;5093852;28;20146;-71
2023/03/14 03:09:53;;;;;;;0.55;0.55;;;;;;;;;;5093532;28;20375;-72
2023/03/14 03:12:19;;;;;;;0.20;0.20;;;;;;;;;;5075857;28;20024;-71
2023/03/14 03:14:44;;;;;;;0.40;0.38;;;;;;;;;;5092346;28;20024;-72
2023/03/14 03:17:10;;;;;;;0.10;0.10;;;;;;;;;;5092613;28;20479;-72
2023/03/14 03:19:37;;;;;;;0.65;0.65;;;;;;;;;;5092446;28;20012;-72
2023/03/14 03:22:02;;;;;;;0.30;0.30;;;;;;;;;;5093741;28;20059;-72
2023/03/14 03:24:28;;;;;;;0.22;0.22;;;;;;;;;;5093705;28;20078;-72
2023/03/14 03:26:53;;;;;;;1.20;1.17;;;;;;;;;;5093309;28;20126;-71
2023/03/14 03:29:19;;;;;;;0.10;0.10;;;;;;;;;;5090944;28;20442;-72
2023/03/14 03:31:45;;;;;;;0.10;0.10;;;;;;;;;;5093634;28;20390;-72
2023/03/14 03:34:12;;;;;;;0.63;0.47;;;;;;;;;;5092301;28;20460;-71
2023/03/14 03:36:37;;;;;;;2.00;1.48;;;;;;;;;;5092309;28;20028;-71
2023/03/14 03:39:03;;;;;;;0.10;0.10;;;;;;;;;;5092135;28;20028;-71
2023/03/14 03:41:29;;;;;;;0.10;0.10;;;;;;;;;;5092116;28;20035;-71
2023/03/14 03:43:55;;;;;;;0.20;0.20;;;;;;;;;;5092237;28;20028;-71
2023/03/14 03:46:21;;;;;;;1.48;1.02;;;;;;;;;;5090802;28;20398;-71
2023/03/14 03:48:47;;;;;;;0.10;0.10;;;;;;;;;;5091964;28;20123;-71
2023/03/14 03:51:13;;;;;;;0.13;0.13;;;;;;;;;;5093392;28;20032;-71
2023/03/14 03:53:39;;;;;;;0.20;0.20;;;;;;;;;;5091989;28;20490;-71
2023/03/14 03:56:09;;;;;;;0.98;0.93;;;;;;;;;;5092089;28;20438;-72
2023/03/14 03:58:34;;;;;;;0.10;0.10;;;;;;;;;;5091460;28;20115;-73
2023/03/14 04:01:01;;;;;;;0.10;0.10;;;;;;;;;;5091407;28;20028;-72
2023/03/14 04:03:26;;;;;;;0.10;0.10;;;;;;;;;;5087094;28;20074;-72
2023/03/14 04:05:58;;;;;;;0.10;0.10;;;;;;;;;;5088221;28;20028;-71
2023/03/14 04:08:24;;;;;;;0.10;0.10;;;;;;;;;;5088048;28;20036;-72
2023/03/14 04:10:49;;;;;;;0.10;0.10;;;;;;;;;;5089575;28;20928;-71
2023/03/14 04:13:19;;;;;;;0.10;0.10;;;;;;;;;;5088008;28;20074;-70
2023/03/14 04:15:49;;;;;;;0.25;0.25;;;;;;;;;;5090458;28;20031;-72
2023/03/14 04:18:20;;;;;;;0.25;0.25;;;;;;;;;;5091248;28;20205;-72
2023/03/14 04:20:50;;;;;;;0.10;0.10;;;;;;;;;;5078568;28;20028;-71
2023/03/14 04:23:16;;;;;;;0.52;0.52;;;;;;;;;;5072882;28;20040;-72
2023/03/14 04:25:42;;;;;;;0.10;0.10;;;;;;;;;;5071521;28;20082;-72
2023/03/14 04:28:07;;;;;;;0.20;0.20;;;;;;;;;;5071053;28;20032;-73
2023/03/14 04:30:33;;;;;;;0.40;0.30;;;;;;;;;;5071338;28;20101;-72
2023/03/14 04:33:04;;;;;;;0.10;0.10;;;;;;;;;;5071300;28;20036;-73
2023/03/14 04:35:34;;;;;;;0.10;0.10;;;;;;;;;;5085424;28;20020;-72
2023/03/14 04:38:05;;;;;;;0.10;0.10;;;;;;;;;;5091844;28;20070;-71
2023/03/14 04:40:32;;;;;;;0.10;0.10;;;;;;;;;;5090404;28;20069;-73
2023/03/14 04:43:03;;;;;;;0.20;0.20;;;;;;;;;;5091719;28;20066;-73
2023/03/14 04:45:29;;;;;;;0.10;0.10;;;;;;;;;;5091173;28;20028;-72
2023/03/14 04:47:57;;;;;;;0.10;0.10;;;;;;;;;;5090533;28;20039;-72
2023/03/14 04:50:22;;;;;;;0.10;0.10;;;;;;;;;;5090518;28;20040;-73
2023/03/14 04:52:48;;;;;;;0.10;0.10;;;;;;;;;;5073871;28;20040;-72
2023/03/14 04:55:14;;;;;;;0.10;0.10;;;;;;;;;;5091041;28;20032;-72
2023/03/14 04:57:39;;;;;;;0.30;0.30;;;;;;;;;;5090806;28;20043;-72
2023/03/14 05:00:09;;;;;;;0.10;0.10;;;;;;;;;;5089138;28;20063;-73
2023/03/14 05:02:53;;;;;;;0.10;0.10;;;;;;;;;;5090484;28;20078;-72
2023/03/14 05:05:29;;;;;;;0.63;0.38;;;;;;;;;;5090077;28;20415;-72
2023/03/14 05:08:04;;;;;;;0.60;0.40;;;;;;;;;;5090967;28;20044;-75
2023/03/14 05:10:59;;;;;;;0.10;0.10;;;;;;;;;;5089406;28;20044;-72
2023/03/14 05:13:43;;;;;;;0.20;0.20;;;;;;;;;;5092329;28;20051;-73
2023/03/14 05:16:17;;;;;;;0.10;0.10;;;;;;;;;;5090719;28;20388;-72
2023/03/14 05:18:51;;;;;;;0.10;0.10;;;;;;;;;;5090317;28;20040;-72
2023/03/14 05:21:35;;;;;;;0.10;0.10;;;;;;;;;;5091482;28;20054;-73
2023/03/14 05:24:32;;;;;;;0.20;0.20;;;;;;;;;;5087557;28;20052;-71
2023/03/14 05:27:09;;;;;;;0.10;0.10;;;;;;;;;;5089514;28;20476;-72
2023/03/14 05:29:37;;;;;;;0.47;0.43;;;;;;;;;;5091714;28;20032;-71
2023/03/14 05:32:25;;;;;;;0.20;0.20;;;;;;;;;;5090370;28;20043;-73
2023/03/14 05:35:03;;;;;;;0.40;0.40;;;;;;;;;;5086816;28;20036;-72
2023/03/14 05:37:44;;;;;;;0.10;0.10;;;;;;;;;;5090553;28;20098;-71
2023/03/14 05:40:16;;;;;;;0.20;0.20;;;;;;;;;;5086440;28;20032;-73
2023/03/14 05:43:00;;;;;;;0.20;0.20;;;;;;;;;;5083185;28;20050;-72
2023/03/14 05:45:44;;;;;;;2.90;2.33;;;;;;;;;;5083465;28;20036;-71
2023/03/14 05:48:25;;;;;;;0.10;0.10;;;;;;;;;;5074236;28;20048;-72
2023/03/14 05:51:17;;;;;;;0.25;0.25;;;;;;;;;;5061488;28;20041;-72
2023/03/14 05:54:09;;;;;;;0.63;0.47;;;;;;;;;;5071152;28;20045;-72
2023/03/14 05:57:02;;;;;;;0.00;0.00;;;;;;;;;;5088054;28;20035;-72
2023/03/14 05:59:54;;;;;;;0.10;0.10;;;;;;;;;;5086580;28;20047;-73
2023/03/14 06:02:42;;;;;;;0.17;0.17;;;;;;;;;;5086497;28;20040;-74
2023/03/14 06:05:18;;;;;;;0.10;0.10;;;;;;;;;;5083065;28;20600;-74
2023/03/14 06:07:44;;;;;;;0.10;0.10;;;;;;;;;;5077088;28;20127;-69
2023/03/14 06:10:10;;;;;;;0.10;0.10;;;;;;;;;;5068642;28;20040;-71
2023/03/14 06:12:36;;;;;;;0.10;0.10;;;;;;;;;;5069136;28;20221;-71
2023/03/14 06:15:02;;;;;;;0.10;0.10;;;;;;;;;;5081311;28;20392;-70
2023/03/14 06:17:27;;;;;;;0.10;0.10;;;;;;;;;;5086936;28;20028;-70
2023/03/14 06:20:02;;;;;;;2.28;0.50;;;;;;;;;;5080979;28;20032;-73
2023/03/14 06:22:30;;;;;;;0.25;0.25;;;;;;;;;;5081235;28;20047;-71
2023/03/14 06:24:55;;;;;;;0.43;0.43;;;;;;;;;;5069031;28;20035;-72
2023/03/14 06:27:22;;;;;;;0.10;0.10;;;;;;;;;;5051718;28;20090;-72
2023/03/14 06:29:51;;;;;;;0.30;0.30;;;;;;;;;;5067539;28;20500;-71
2023/03/14 06:32:17;;;;;;;1.38;0.95;;;;;;;;;;5067864;28;20113;-74
2023/03/14 06:34:44;;;;;;;0.45;0.30;;;;;;;;;;5070032;28;20047;-72
2023/03/14 06:37:10;;;;;;;0.65;0.40;;;;;;;;;;5080585;28;20635;-73
2023/03/14 06:39:37;;;;;;;0.20;0.20;;;;;;;;;;5068294;28;20123;-72
2023/03/14 06:42:09;;;;;;;0.15;0.15;;;;;;;;;;5069128;28;20155;-73
2023/03/14 06:44:36;;;;;;;0.10;0.10;;;;;;;;;;5080735;28;20109;-72
2023/03/14 06:47:02;;;;;;;0.22;0.22;;;;;;;;;;5081981;28;20039;-72
2023/03/14 06:49:28;;;;;;;0.10;0.10;;;;;;;;;;5084336;28;20049;-72
2023/03/14 06:51:55;;;;;;;0.50;0.50;;;;;;;;;;5075304;28;20124;-72
2023/03/14 06:54:20;;;;;;;0.10;0.10;;;;;;;;;;5068051;28;20158;-73
2023/03/14 06:56:46;;;;;;;2.85;0.65;;;;;;;;;;5066381;28;20044;-73
2023/03/14 06:59:12;;;;;;;0.22;0.22;;;;;;;;;;5065919;28;20024;-74
2023/03/14 07:01:39;;;;;;;2.15;2.00;;;;;;;;;;5067889;28;20119;-73
2023/03/14 07:04:08;;;;;;;;;;;;;;;;;;5068325;28;20511;-71
2023/03/14 07:06:35;;;;;;;0.57;0.50;;;;;;;;;;5068335;28;20039;-71
2023/03/14 07:09:01;;;;;;;0.32;0.32;;;;;;;;;;5070099;28;20115;-72
2023/03/14 07:11:27;;;;;;;0.10;0.10;;;;;;;;;;5069880;28;20090;-73
2023/03/14 07:13:52;;;;;;;0.55;0.45;;;;;;;;;;5068591;28;20035;-71
2023/03/14 07:16:20;;;;;;;0.75;0.75;;;;;;;;;;5068203;28;20056;-73
2023/03/14 07:18:45;;;;;;;3.10;0.40;;;;;;;;;;5069564;28;20074;-72
2023/03/14 07:21:11;;;;;;;0.25;0.25;;;;;;;;;;5069451;28;20090;-73
2023/03/14 07:23:37;;;;;;;0.20;0.20;;;;;;;;;;5069051;28;20086;-74
2023/03/14 07:26:02;;;;;;;0.30;0.30;;;;;;;;;;5068037;28;20040;-72
2023/03/14 07:28:30;;;;;;;0.20;0.20;;;;;;;;;;5081565;28;20040;-74
2023/03/14 07:31:06;;;;;;;1.38;0.63;;;;;;;;;;5067921;28;20063;-73
2023/03/14 07:33:32;;;;;;;0.50;0.40;;;;;;;;;;5077760;28;20067;-72
2023/03/14 07:35:59;;;;;;;0.60;0.60;;;;;;;;;;5070303;28;20436;-72
2023/03/14 07:38:24;;;;;;;3.40;0.55;;;;;;;;;;5069530;28;20067;-74
2023/03/14 07:41:10;;;;;;;2.20;1.45;;;;;;;;;;5072277;28;20543;-73
2023/03/14 07:43:42;;;;;;;1.45;0.77;;;;;;;;;;5068203;28;20135;-72
2023/03/14 07:46:08;;;;;;;4.63;2.03;;;;;;;;;;5070903;28;20564;-72
2023/03/14 07:48:33;;;;;;;0.63;0.43;;;;;;;;;;5078494;28;20082;-72
2023/03/14 07:50:59;;;;;;;0.77;0.63;;;;;;;;;;5067827;28;20434;-75
2023/03/14 07:53:24;;;;;;;7.25;1.50;;;;;;;;;;5069006;28;20086;-74
2023/03/14 07:55:51;;;;;;;0.40;0.40;;;;;;;;;;5077260;28;20036;-72
2023/03/14 07:58:16;;;;;;;0.57;0.40;;;;;;;;;;5071980;28;20119;-75
2023/03/14 08:00:43;;;;;;;1.52;1.30;;;;;;;;;;5069253;28;20101;-73
2023/03/14 08:03:08;;;;;;;0.47;0.47;;;;;;;;;;5081911;28;20403;-74
2023/03/14 08:05:34;;;;;;;0.47;0.47;;;;;;;;;;5087056;28;20102;-72
2023/03/14 08:08:00;;;;;;;0.20;0.20;;;;;;;;;;5087379;28;20085;-72
2023/03/14 08:10:25;;;;;;;1.90;0.45;;;;;;;;;;5087388;28;20040;-73
2023/03/14 08:12:54;;;;;;;1.60;1.08;;;;;;;;;;5087027;28;20383;-73
2023/03/14 08:15:20;;;;;;;0.98;0.80;;;;;;;;;;5086477;28;20040;-75
2023/03/14 08:17:50;;;;;;;0.28;0.28;;;;;;;;;;5086992;28;20491;-73
2023/03/14 08:20:20;;;;;;;0.22;0.22;;;;;;;;;;5088629;28;20457;-73
2023/03/14 08:22:45;;;;;;;0.30;0.30;;;;;;;;;;5070822;28;20070;-73
2023/03/14 08:25:10;;;;;;;0.20;0.20;;;;;;;;;;5089039;28;20447;-72
2023/03/14 08:27:38;;;;;;;1.90;1.33;;;;;;;;;;5088816;28;20052;-74
2023/03/14 08:30:07;;;;;;;2.05;1.42;;;;;;;;;;5089030;28;20566;-73
2023/03/14 08:32:32;;;;;;;0.80;0.55;;;;;;;;;;5088422;28;20392;-73
2023/03/14 08:34:57;;;;;;;0.38;0.38;;;;;;;;;;5080803;28;20032;-73
2023/03/14 08:37:24;;;;;;;0.30;0.30;;;;;;;;;;5088644;28;20086;-73
2023/03/14 08:39:50;;;;;;;0.98;0.40;;;;;;;;;;5087177;28;20052;-72
2023/03/14 08:42:16;;;;;;;3.10;1.00;;;;;;;;;;5088358;28;20391;-71
2023/03/14 08:44:41;;;;;;;1.95;0.57;;;;;;;;;;5076561;28;20241;-72
2023/03/14 08:47:06;;;;;;;0.50;0.50;;;;;;;;;;5087088;28;20554;-73
2023/03/14 08:49:32;;;;;;;3.17;1.15;;;;;;;;;;5083591;28;20418;-72
2023/03/14 08:51:58;;;;;;;5.28;1.23;;;;;;;;;;5082222;28;20028;-72
2023/03/14 08:54:24;;;;;;;0.30;0.30;;;;;;;;;;5073003;28;20032;-71
2023/03/14 08:56:49;;;;;;;1.83;0.85;;;;;;;;;;5068968;28;20032;-71
2023/03/14 08:59:14;;;;;;;5.57;3.15;;;;;;;;;;5072300;28;20032;-72
2023/03/14 09:01:40;;;;;;;0.25;0.25;;;;;;;;;;5060261;28;20090;-73
2023/03/14 09:04:06;;;;;;;0.85;0.77;;;;;;;;;;5072132;28;20269;-71
2023/03/14 09:06:32;;;;;;;0.63;0.47;;;;;;;;;;5070940;28;20025;-72
2023/03/14 09:08:57;;;;;;;0.63;0.50;;;;;;;;;;5072228;28;20029;-72
2023/03/14 09:11:23;;;;;;;3.08;1.13;;;;;;;;;;5071679;28;20136;-72
2023/03/14 09:13:48;;;;;;;0.57;0.40;;;;;;;;;;5071828;28;20119;-74
2023/03/14 09:16:14;;;;;;;27.75;1.13;;;;;;;;;;5070991;28;20052;-71
2023/03/14 09:18:39;;;;;;;0.22;0.22;;;;;;;;;;5068512;28;20032;-72
2023/03/14 09:21:05;;;;;;;1.95;0.57;;;;;;;;;;5069854;28;20430;-71
2023/03/14 09:23:30;;;;;;;3.10;0.60;;;;;;;;;;5068290;28;20071;-74
2023/03/14 09:25:59;;;;;;;2.28;0.30;;;;;;;;;;5069758;28;20033;-72
2023/03/14 09:28:25;;;;;;;0.63;0.33;;;;;;;;;;5068211;28;20041;-72
2023/03/14 09:30:50;;;;;;;1.02;0.40;;;;;;;;;;5070151;28;20037;-71
2023/03/14 09:33:17;;;;;;;1.85;0.50;;;;;;;;;;5069699;28;20033;-74
2023/03/14 09:35:42;;;;;;;0.68;0.40;;;;;;;;;;5070890;28;20358;-72
2023/03/14 09:38:08;;;;;;;0.60;0.50;;;;;;;;;;5070823;28;20083;-71
2023/03/14 09:40:37;;;;;;;0.40;0.40;;;;;;;;;;5071493;28;20020;-71
2023/03/14 09:43:03;;;;;;;2.17;0.50;;;;;;;;;;5071406;28;20040;-72
2023/03/14 09:45:31;;;;;;;0.22;0.22;;;;;;;;;;5053036;28;20384;-71
2023/03/14 09:47:57;;;;;;;0.35;0.35;;;;;;;;;;5055014;28;20510;-71
2023/03/14 09:50:23;;;;;;;0.32;0.32;;;;;;;;;;5078583;28;20043;-71
2023/03/14 09:52:51;;;;;;;0.75;0.75;;;;;;;;;;5079828;28;20028;-72
2023/03/14 09:55:17;;;;;;;0.22;0.22;;;;;;;;;;5089389;28;20077;-72
2023/03/14 09:57:44;;;;;;;0.30;0.30;;;;;;;;;;5083330;28;20040;-73
2023/03/14 10:00:20;;;;;;;0.40;0.40;;;;;;;;;;5077661;28;20541;-73
2023/03/14 10:02:50;;;;;;;0.73;0.57;;;;;;;;;;5070786;28;20036;-72
2023/03/14 10:05:15;;;;;;;;;;;;;;;;;;5081792;28;20471;-73
2023/03/14 10:07:41;;;;;;;1.75;0.68;;;;;;;;;;5090356;28;19938;-75
2023/03/14 10:10:10;;;;;;;6.43;1.55;;;;;;;;;;5090502;28;20090;-74
2023/03/14 10:12:38;;;;;;;1.30;0.52;;;;;;;;;;5071782;28;20887;-72
2023/03/14 10:15:08;;;;;;;1.33;0.75;;;;;;;;;;5090463;28;20020;-73
2023/03/14 10:17:49;;;;;;;0.40;0.40;;;;;;;;;;5090276;28;20032;-73
2023/03/14 10:20:32;;;;;;;4.60;1.58;;;;;;;;;;5088880;28;20040;-73
2023/03/14 10:22:58;;;;;;;0.38;0.25;;;;;;;;;;5085484;28;20036;-73
2023/03/14 10:25:34;;;;;;;4.60;0.80;;;;;;;;;;5087922;28;20024;-74
2023/03/14 10:27:59;;;;;;;1.77;1.23;;;;;;;;;;5089925;28;20035;-72
2023/03/14 10:30:44;;;;;;;1.58;1.48;;;;;;;;;;5084116;28;20085;-73
2023/03/14 10:33:23;;;;;;;4.15;1.05;;;;;;;;;;5070560;28;20032;-71
2023/03/14 10:35:53;;;;;;;1.38;0.68;;;;;;;;;;5090868;28;20032;-72
2023/03/14 10:38:18;;;;;;;1.80;1.55;;;;;;;;;;5090577;28;20035;-71
2023/03/14 10:40:49;;;;;;;0.77;0.45;;;;;;;;;;5090368;28;20032;-71
2023/03/14 10:43:21;;;;;;;0.90;0.50;;;;;;;;;;5090453;28;20043;-72
2023/03/14 10:45:57;;;;;;;0.47;0.47;;;;;;;;;;5088986;28;21082;-72
2023/03/14 10:48:26;;;;;;;2.97;0.73;;;;;;;;;;5089126;28;20039;-70
2023/03/14 10:50:54;;;;;;;1.55;1.42;;;;;;;;;;5090372;28;20016;-71
2023/03/14 10:53:20;;;;;;;1.75;1.45;;;;;;;;;;5089033;28;20502;-71
2023/03/14 10:55:45;;;;;;;0.77;0.77;;;;;;;;;;5090125;28;20028;-71
2023/03/14 10:58:27;;;;;;;6.03;0.90;;;;;;;;;;5090016;28;20081;-73
2023/03/14 11:01:08;;;;;;;0.10;0.10;;;;;;;;;;5089978;28;20051;-70
2023/03/14 11:03:35;;;;;;;0.40;0.40;;;;;;;;;;5090001;28;20067;-72
2023/03/14 11:06:06;;;;;;;2.00;0.50;;;;;;;;;;5090037;28;20039;-71
2023/03/14 11:08:32;;;;;;;1.05;0.95;;;;;;;;;;5090158;28;20048;-72
2023/03/14 11:11:05;;;;;;;0.20;0.20;;;;;;;;;;5089667;28;20395;-71
2023/03/14 11:13:30;;;;;;;0.50;0.50;;;;;;;;;;5071466;28;20040;-70
2023/03/14 11:15:55;;;;;;;0.65;0.50;;;;;;;;;;5088565;28;20131;-70
2023/03/14 11:18:21;;;;;;;0.20;0.20;;;;;;;;;;5089852;28;20036;-71
2023/03/14 11:20:49;;;;;;;1.90;1.48;;;;;;;;;;5089506;28;20537;-71
2023/03/14 11:23:18;;;;;;;5.45;2.20;;;;;;;;;;5088751;28;20040;-71
2023/03/14 11:25:51;;;;;;;0.20;0.20;;;;;;;;;;5088810;28;20110;-71
2023/03/14 11:28:17;;;;;;;0.70;0.70;;;;;;;;;;5071403;28;20063;-71
2023/03/14 11:30:49;;;;;;;0.82;0.73;;;;;;;;;;5088328;28;20036;-71
2023/03/14 11:33:15;;;;;;;0.10;0.10;;;;;;;;;;5089462;28;20032;-71
2023/03/14 11:35:45;;;;;;;4.30;1.70;;;;;;;;;;5089481;28;20054;-71
2023/03/14 11:38:14;;;;;;;2.20;0.55;;;;;;;;;;5087735;28;20476;-73
2023/03/14 11:40:40;;;;;;;0.30;0.30;;;;;;;;;;5089696;28;20027;-72
2023/03/14 11:43:08;;;;;;;2.55;0.60;;;;;;;;;;5089455;28;20050;-73
2023/03/14 11:45:38;;;;;;;6.80;5.50;;;;;;;;;;5089176;28;20476;-72
2023/03/14 11:48:06;;;;;;;2.10;1.85;;;;;;;;;;5071467;28;20455;-72
2023/03/14 11:50:33;;;;;;;1.38;1.27;;;;;;;;;;5089328;28;20054;-73
2023/03/14 11:53:03;;;;;;;0.80;0.73;;;;;;;;;;5071588;28;20074;-72
2023/03/14 11:55:31;;;;;;;0.30;0.30;;;;;;;;;;5089195;28;20038;-73
2023/03/14 11:58:00;;;;;;;2.72;1.85;;;;;;;;;;5076291;28;20033;-72
2023/03/14 12:00:25;;;;;;;0.15;0.15;;;;;;;;;;5068254;28;20086;-72
2023/03/14 12:02:50;;;;;;;3.95;1.08;;;;;;;;;;5085210;28;20391;-72
2023/03/14 12:05:31;;;;;;;1.33;0.25;;;;;;;;;;5088859;28;20055;-72
2023/03/14 12:08:09;;;;;;;0.50;0.20;;;;;;;;;;5070401;28;20044;-72
2023/03/14 12:10:46;;;;;;;0.10;0.10;;;;;;;;;;5089551;28;20032;-72
2023/03/14 12:13:12;;;;;;;3.05;1.33;;;;;;;;;;5089190;28;20138;-71
2023/03/14 12:15:40;;;;;;;0.17;0.17;;;;;;;;;;5086794;28;20058;-72
2023/03/14 12:18:37;;;;;;;0.95;0.80;;;;;;;;;;5089111;28;20082;-75
2023/03/14 12:21:04;;;;;;;1.67;0.47;;;;;;;;;;5084467;28;20131;-71
2023/03/14 12:23:39;;;;;;;0.00;0.00;;;;;;;;;;5088889;28;20144;-70
2023/03/14 12:26:08;;;;;;;0.22;0.22;;;;;;;;;;5089236;28;20042;-70
2023/03/14 12:28:33;;;;;;;1.10;0.73;;;;;;;;;;5089368;28;20051;-71
2023/03/14 12:31:19;;;;;;;0.10;0.10;;;;;;;;;;5081729;28;20032;-72
2023/03/14 12:33:44;;;;;;;0.10;0.10;;;;;;;;;;5083536;28;20032;-72
2023/03/14 12:36:19;;;;;;;0.17;0.17;;;;;;;;;;5069461;28;20086;-74
2023/03/14 12:38:49;;;;;;;0.10;0.10;;;;;;;;;;5072660;28;20079;-71
2023/03/14 12:41:24;;;;;;;0.30;0.30;;;;;;;;;;5078009;28;20036;-71
2023/03/14 12:43:50;;;;;;;11.80;2.15;;;;;;;;;;5071020;28;20416;-72
2023/03/14 12:46:18;;;;;;;0.20;0.20;;;;;;;;;;5072481;28;20037;-73
2023/03/14 12:48:44;;;;;;;16.13;2.08;;;;;;;;;;5072370;28;20074;-72
2023/03/14 12:51:14;;;;;;;0.22;0.22;;;;;;;;;;5087598;28;20021;-72
2023/03/14 12:53:57;;;;;;;0.55;0.55;;;;;;;;;;5054605;28;20107;-71
2023/03/14 12:56:41;;;;;;;1.15;0.63;;;;;;;;;;5072402;28;20492;-72
2023/03/14 12:59:09;;;;;;;0.10;0.10;;;;;;;;;;5072483;28;20036;-71
2023/03/14 13:01:35;;;;;;;0.30;0.30;;;;;;;;;;5070582;28;20040;-70
2023/03/14 13:04:11;;;;;;;0.98;0.55;;;;;;;;;;5072410;28;20032;-72
2023/03/14 13:06:53;;;;;;;0.65;0.47;;;;;;;;;;5070874;28;20132;-73
2023/03/14 13:09:32;;;;;;;0.13;0.13;;;;;;;;;;5072246;28;20032;-72
2023/03/14 13:12:02;;;;;;;0.57;0.52;;;;;;;;;;5071946;28;20032;-72
2023/03/14 13:14:28;;;;;;;0.38;0.25;;;;;;;;;;5074019;28;20036;-72
2023/03/14 13:16:54;;;;;;;2.22;0.82;;;;;;;;;;5083037;28;20036;-71
2023/03/14 13:19:21;;;;;;;0.50;0.40;;;;;;;;;;5091888;28;20036;-72
2023/03/14 13:21:47;;;;;;;0.10;0.10;;;;;;;;;;5073711;28;20475;-73
2023/03/14 13:24:22;;;;;;;7.30;0.75;;;;;;;;;;5091744;28;20027;-72
2023/03/14 13:26:47;;;;;;;0.20;0.20;;;;;;;;;;5090370;28;20472;-71
2023/03/14 13:29:16;;;;;;;0.25;0.22;;;;;;;;;;5091644;28;20116;-71
2023/03/14 13:31:46;;;;;;;0.73;0.50;;;;;;;;;;5091906;28;20032;-71
2023/03/14 13:34:11;;;;;;;0.10;0.10;;;;;;;;;;5092222;28;20067;-70
2023/03/14 13:36:37;;;;;;;3.78;3.55;;;;;;;;;;5091793;28;20059;-72
2023/03/14 13:39:04;;;;;;;0.35;0.35;;;;;;;;;;5091673;28;20024;-72
2023/03/14 13:41:30;;;;;;;10.05;0.90;;;;;;;;;;5091421;28;20461;-71
2023/03/14 13:44:00;;;;;;;3.83;1.05;;;;;;;;;;5091548;28;20099;-72
2023/03/14 13:46:26;;;;;;;2.45;0.55;;;;;;;;;;5091500;28;20031;-72
2023/03/14 13:48:58;;;;;;;0.10;0.10;;;;;;;;;;5089994;28;20858;-73
2023/03/14 13:51:27;;;;;;;0.70;0.70;;;;;;;;;;5089978;28;20115;-72
2023/03/14 13:53:54;;;;;;;0.77;0.40;;;;;;;;;;5083791;28;20079;-73
2023/03/14 13:56:20;;;;;;;0.47;0.43;;;;;;;;;;5087727;28;20051;-72
2023/03/14 13:58:45;;;;;;;0.30;0.25;;;;;;;;;;5091579;28;20028;-72
2023/03/14 14:01:18;;;;;;;0.20;0.20;;;;;;;;;;5089567;28;20032;-72
2023/03/14 14:03:45;;;;;;;2.15;1.05;;;;;;;;;;5086748;28;20040;-72
2023/03/14 14:06:19;;;;;;;0.13;0.13;;;;;;;;;;5075072;28;20032;-73
2023/03/14 14:08:44;;;;;;;4.15;0.35;;;;;;;;;;5070884;28;20373;-74
2023/03/14 14:11:16;;;;;;;3.97;1.77;;;;;;;;;;5070961;28;20043;-72
2023/03/14 14:13:42;;;;;;;0.10;0.10;;;;;;;;;;5070856;28;20028;-74
2023/03/14 14:16:08;;;;;;;0.10;0.10;;;;;;;;;;5070921;28;20380;-74
2023/03/14 14:18:34;;;;;;;0.10;0.10;;;;;;;;;;5070751;28;20041;-74
2023/03/14 14:21:01;;;;;;;0.22;0.20;;;;;;;;;;5071046;28;20128;-73
2023/03/14 14:23:28;;;;;;;1.95;0.28;;;;;;;;;;5070810;28;20072;-75
2023/03/14 14:25:54;;;;;;;0.20;0.20;;;;;;;;;;5077981;28;20557;-75
2023/03/14 14:28:23;;;;;;;0.10;0.10;;;;;;;;;;5078395;28;20072;-74
2023/03/14 14:30:59;;;;;;;0.82;0.82;;;;;;;;;;5070081;28;20043;-73
2023/03/14 14:33:24;;;;;;;0.10;0.10;;;;;;;;;;5070004;28;20498;-74
2023/03/14 14:35:51;;;;;;;0.10;0.10;;;;;;;;;;5070498;28;20044;-75
2023/03/14 14:38:17;;;;;;;1.05;1.05;;;;;;;;;;5070376;28;20040;-75
2023/03/14 14:40:47;;;;;;;0.10;0.10;;;;;;;;;;5070275;28;20102;-74
2023/03/14 14:43:16;;;;;;;0.93;0.85;;;;;;;;;;5069151;28;20029;-75
2023/03/14 14:45:42;;;;;;;0.20;0.20;;;;;;;;;;5070532;28;20029;-73
2023/03/14 14:48:09;;;;;;;0.75;0.75;;;;;;;;;;5069832;28;20055;-74
2023/03/14 14:50:37;;;;;;;0.10;0.10;;;;;;;;;;5070144;28;20955;-72
2023/03/14 14:53:19;;;;;;;0.10;0.10;;;;;;;;;;5075183;28;20036;-73
2023/03/14 14:55:45;;;;;;;1.10;0.52;;;;;;;;;;5070332;28;20047;-71